Tiempo atmosférico en la estación meteorológica de Marbella, Puerto, Málaga (6 m.)



Fecha
DESCASC
Temp. máxima en grados centígrados (hora)
DESCASC
Temp. mínima en grados centígrados (hora)
DESCASC
Temp. media en grados centígrados
DESCASC
Racha de viento máxima en m/sg (hora)
DESCASC
Velocidad máxima media en intervalos de 10 minutos(hora)
DESCASC
Precipitaciones diarias en mm
DESCASC
Precipitaciones de 00:00 a 06:00 en mm
DESCASC
Precipitaciones de 06:00 a 12:00 en mm
DESCASC
Precipitaciones de 12:00 a 18:00 en mm
DESCASC
Precipitaciones de 18:00 a 24:00 en mm
DESCASC
31-05-2020 23.3 (19:00) 18 (07:10) 20.6 22.22 (17:10) 17.22 (17:10) 0.2 0 0 0.2 0
30-05-2020 22 (09:30) 17.2 (06:30) 19.6 10.56 (14:40) 8.33 (14:30) 0 0 0 0 0
29-05-2020 23.7 (09:30) 17.9 (07:10) 20.8 5 (00:10) 3.06 (07:50) 0 0 0 0 0
28-05-2020 24.1 (15:20) 19.5 (00:00) 21.8 10 (01:10) 7.5 (01:30) 0 0 0 0 0
27-05-2020 23.6 (15:20) 18.2 (00:00) 20.9 10.28 (01:30) 6.94 (01:30) 0 0 0 0 0
26-05-2020 23.8 (09:10) 19.4 (00:00) 21.6 9.72 (17:10) 7.5 (17:10) 0 0 0 0 0
25-05-2020 21.8 (21:00) 17.5 (00:00) 19.6 11.11 (22:20) 7.5 (20:50) 0 0 0 0 0
24-05-2020 23.7 (08:40) 19.8 (00:00) 21.8 8.89 (14:50) 6.67 (15:00) 0 0 0 0 0
23-05-2020 27.5 (18:20) 19.5 (00:00) 23.5 7.78 (12:00) 6.11 (12:00) 0 0 0 0 0
22-05-2020 24.6 (12:40) 19 (00:00) 21.8 3.61 (10:30) 3.33 (10:30) 0 0 0 0 0
21-05-2020 24.4 (18:00) 18.7 (00:00) 21.6 4.44 (01:20) 3.33 (00:50) 0 0 0 0 0
20-05-2020 25.2 (18:30) 17.6 (00:00) 21.4 4.44 (04:20) 3.06 (17:30) 0 0 0 0 0
19-05-2020 22.3 (20:10) 16.2 (00:00) 19.3 5.28 (20:40) 4.44 (18:10) 0 0 0 0 0
18-05-2020 21 (18:30) 15.1 (00:00) 18.1 4.72 (21:00) 4.17 (21:00) 0 0 0 0 0
17-05-2020 19.5 (11:30) 14.6 (00:00) 17.1 5.83 (01:50) 4.72 (15:50) 0.2 0 0 0.2 0
16-05-2020 18.9 (17:50) 14.5 (00:00) 16.7 8.33 (18:30) 4.72 (18:20) 0 0 0 0 0
15-05-2020 18.6 (11:40) 13 (00:00) 15.8 5.56 (03:40) 4.44 (11:20) 0 0 0 0 0
14-05-2020 17.8 (14:10) 12.5 (00:00) 15.1 16.11 (21:20) 11.94 (21:20) -- -- -- -- 1.8
13-05-2020 19.2 (16:00) 12.4 (00:00) 15.8 10.83 (19:40) 8.33 (19:40) -- -- -- -- --
12-05-2020 18.5 (19:50) 13.4 (00:00) 15.9 8.33 (03:00) 6.39 (02:50) -- -- -- -- --
11-05-2020 21.9 (17:20) 16 (00:00) 18.9 12.22 (17:30) 8.61 (12:20) -- -- -- -- --
10-05-2020 21.6 (19:50) 16 (00:00) 18.8 16.67 (17:50) 11.39 (17:50) -- -- -- -- --
09-05-2020 21 (10:00) 16 (00:00) 18.5 14.72 (16:00) 12.78 (15:50) -- -- -- -- --
08-05-2020 22.8 (09:30) 17.2 (00:00) 20 4.44 (12:50) 3.61 (22:20) -- -- -- -- --
07-05-2020 22.6 (17:30) 18.6 (00:00) 20.6 10.83 (01:50) 8.61 (02:00) -- -- -- -- --
06-05-2020 22.7 (17:30) 16.7 (00:00) 19.7 5.28 (02:00) 4.17 (01:50) -- -- -- -- --
05-05-2020 23.2 (12:50) 16.8 (00:00) 20 4.72 (20:20) 3.89 (16:30) -- -- -- -- --
04-05-2020 25.8 (10:00) 18.7 (00:00) 22.3 7.22 (14:00) 6.39 (14:00) -- -- -- -- --
03-05-2020 24.1 (16:30) 17.2 (00:00) 20.7 5 (08:10) 3.61 (08:10) -- -- -- -- --
02-05-2020 23 (20:10) 17.7 (00:00) 20.4 4.72 (20:40) 3.61 (20:40) -- -- -- -- --

Gráficas

Temp. máximas Temp. mínimas Temp. medias Precipitaciones Rachas de viento máximas Velocidades máximas media en intervalos de 10 minutos

Datos horarios

Fecha y hora oficial Temperatura (ºC) Velocidad del viento (km/h) Dirección del viento Racha (km/h) Dirección de racha Precipitación (mm) Presión (hPa) Tendencia (hPa) Humedad (%)
2020-05-31 23:00:00 18.9 10 Norte 15 Noroeste 0 -- -- 72
2020-05-31 22:00:00 20 3 Norte 7 Sudoeste 0 -- -- 68
2020-05-31 21:00:00 20.6 6 Sudoeste 13 Sudoeste 0 -- -- 68
2020-05-31 20:00:00 21.3 14 Sudoeste 23 Sudoeste 0 -- -- 71
2020-05-31 19:00:00 23.3 14 Oeste 33 Sudoeste 0 -- -- 60
2020-05-31 18:00:00 20.5 27 Sudoeste 80 Nordeste 0.2 -- -- 73
2020-05-31 17:00:00 18.7 38 Nordeste 57 Nordeste 0 -- -- 75
2020-05-31 16:00:00 20.7 8 Oeste 21 Oeste 0 -- -- 59
2020-05-31 15:00:00 21.4 6 Noroeste 21 Oeste 0 -- -- 52
2020-05-31 14:00:00 21.4 11 Oeste 18 Oeste 0 -- -- 62
2020-05-31 13:00:00 20.6 2 Sudoeste 10 Sur 0 -- -- 70
2020-05-31 12:00:00 22.3 0 Calma 6 Sudoeste 0 -- -- 62
2020-05-31 11:00:00 21.3 2 Sur 4 Sur 0 -- -- 56
2020-05-31 10:00:00 21.2 0 Calma 11 Noroeste 0 -- -- 57
2020-05-31 09:00:00 20.2 6 Noroeste 11 Norte 0 -- -- 46
2020-05-31 08:00:00 18.1 10 Noroeste 14 Norte 0 -- -- 44
2020-05-31 07:00:00 18.1 2 Oeste 10 Noroeste 0 -- -- 49
2020-05-31 06:00:00 18.7 5 Noroeste 13 Noroeste 0 -- -- 36
2020-05-31 05:00:00 19.1 9 Norte 19 Norte 0 -- -- 35
2020-05-31 04:00:00 20.7 16 Este 21 Nordeste 0 -- -- 51
2020-05-31 03:00:00 19.2 6 Norte 16 Norte 0 -- -- 42
2020-05-31 02:00:00 19.1 8 Norte 14 Norte 0 -- -- 47
2020-05-31 01:00:00 20.8 14 Este 24 Este 0 -- -- 56
2020-05-31 00:00:00 21.4 18 Nordeste 26 Nordeste 0 -- -- 53
2020-05-30 23:00:00 20.7 16 Este 22 Este 0 -- -- 63
2020-05-30 22:00:00 21 18 Este 22 Nordeste 0 -- -- 61
2020-05-30 21:00:00 20.4 14 Este 25 Sudeste 0 -- -- 78
2020-05-30 20:00:00 20.9 19 Sudeste 31 Este 0 -- -- 74
2020-05-30 19:00:00 20.7 23 Sudeste 30 Este 0 -- -- 78
2020-05-30 18:00:00 20.5 20 Sudeste 31 Sudeste 0 -- -- 82
2020-05-30 17:00:00 20.3 23 Sudeste 33 Este 0 -- -- 81
2020-05-30 16:00:00 20.2 27 Este 36 Este 0 -- -- 81
2020-05-30 15:00:00 20 27 Este 38 Este 0 -- -- 81
2020-05-30 14:00:00 19.9 27 Sudeste 36 Sudeste 0 -- -- 84
2020-05-30 13:00:00 20.1 26 Este 35 Este 0 -- -- 80
2020-05-30 12:00:00 20 24 Sudeste 31 Este 0 -- -- 80
2020-05-30 11:00:00 20 22 Sudeste 28 Este 0 -- -- 80
2020-05-30 10:00:00 20.2 21 Este 27 Este 0 -- -- 74
2020-05-30 09:00:00 21.1 4 Nordeste 9 Norte 0 -- -- 52
2020-05-30 08:00:00 18.3 8 Noroeste 15 Norte 0 -- -- 57
2020-05-30 07:00:00 17.4 9 Noroeste 16 Noroeste 0 -- -- 57
2020-05-30 06:00:00 17.4 10 Noroeste 15 Norte 0 -- -- 59
2020-05-30 05:00:00 17.4 9 Noroeste 13 Norte 0 -- -- 63
2020-05-30 04:00:00 17.7 8 Norte 12 Noroeste 0 -- -- 67
2020-05-30 03:00:00 18.2 6 Norte 10 Norte 0 -- -- 71
2020-05-30 02:00:00 18.6 8 Noroeste 13 Noroeste 0 -- -- 72
2020-05-30 01:00:00 18.9 7 Noroeste 12 Norte 0 -- -- 80
2020-05-30 00:00:00 20 0 Calma 4 Nordeste 0 -- -- 78
2020-05-29 23:00:00 20.3 2 Este 5 Norte 0 -- -- 78
2020-05-29 22:00:00 20.3 0 Calma 3 Sur 0 -- -- 78
2020-05-29 21:00:00 20.5 3 Sur 7 Sur 0 -- -- 77
2020-05-29 20:00:00 21.2 6 Sur 8 Sudoeste 0 -- -- 74
2020-05-29 19:00:00 22.1 6 Sudoeste 10 Sudoeste 0 -- -- 69
2020-05-29 18:00:00 21.9 7 Sudoeste 9 Sudoeste 0 -- -- 67
2020-05-29 17:00:00 22.1 6 Sudoeste 9 Sudoeste 0 -- -- 67
2020-05-29 16:00:00 23.1 3 Sudoeste 8 Sur 0 -- -- 64
2020-05-29 15:00:00 22.1 5 Sudeste 8 Este 0 -- -- 67
2020-05-29 14:00:00 22 6 Sur 10 Sudoeste 0 -- -- 68
2020-05-29 13:00:00 22.1 8 Sudoeste 10 Sudoeste 0 -- -- 72
2020-05-29 12:00:00 21.5 7 Sudoeste 10 Sur 0 -- -- 71
2020-05-29 11:00:00 21.4 8 Sudoeste 9 Sudoeste 0 -- -- 69
2020-05-29 10:00:00 22.6 5 Sudoeste 9 Oeste 0 -- -- 62
2020-05-29 09:00:00 21.1 6 Norte 15 Norte 0 -- -- 66
2020-05-29 08:00:00 18.6 10 Noroeste 16 Noroeste 0 -- -- 75
2020-05-29 07:00:00 18 9 Norte 14 Noroeste 0 -- -- 78
2020-05-29 06:00:00 18.1 8 Norte 13 Norte 0 -- -- 78
2020-05-29 05:00:00 18.4 8 Norte 13 Noroeste 0 -- -- 77
2020-05-29 04:00:00 18.6 7 Noroeste 13 Norte 0 -- -- 76
2020-05-29 03:00:00 18.8 9 Noroeste 13 Noroeste 0 -- -- 75
2020-05-29 02:00:00 19.2 7 Norte 14 Norte 0 -- -- 74
2020-05-29 01:00:00 20.5 6 Nordeste 18 Nordeste 0 -- -- 73
2020-05-29 00:00:00 20.6 8 Nordeste 24 Nordeste 0 -- -- 74
2020-05-28 23:00:00 20.8 14 Nordeste 24 Este 0 -- -- 73
2020-05-28 22:00:00 20.7 17 Nordeste 26 Este 0 -- -- 75
2020-05-28 21:00:00 21 17 Este 23 Nordeste 0 -- -- 74
2020-05-28 20:00:00 21.9 14 Este 22 Nordeste 0 -- -- 72
2020-05-28 19:00:00 22.6 14 Nordeste 20 Nordeste 0 -- -- 64
2020-05-28 18:00:00 23.2 14 Nordeste 24 Nordeste 0 -- -- 64
2020-05-28 17:00:00 23.3 12 Nordeste 21 Este 0 -- -- 61
2020-05-28 16:00:00 23.1 9 Este 21 Este 0 -- -- 58
2020-05-28 15:00:00 23.4 6 Este 13 Este 0 -- -- 63
2020-05-28 14:00:00 23.4 8 Este 14 Este 0 -- -- 64
2020-05-28 13:00:00 23.4 7 Nordeste 14 Este 0 -- -- 64
2020-05-28 12:00:00 22.9 10 Nordeste 17 Nordeste 0 -- -- 67
2020-05-28 11:00:00 22.6 13 Nordeste 18 Nordeste 0 -- -- 68
2020-05-28 10:00:00 22.3 9 Este 16 Nordeste 0 -- -- 70
2020-05-28 09:00:00 21 5 Noroeste 11 Nordeste 0 -- -- 73
2020-05-28 08:00:00 20 5 Norte 9 Noroeste 0 -- -- 75
2020-05-28 07:00:00 19.5 3 Oeste 13 Noroeste 0 -- -- 76
2020-05-28 06:00:00 20 3 Noroeste 8 Noroeste 0 -- -- 77
2020-05-28 05:00:00 20.2 4 Sudeste 18 Nordeste 0 -- -- 76
2020-05-28 04:00:00 20.3 14 Nordeste 26 Nordeste 0 -- -- 74
2020-05-28 03:00:00 20.8 16 Nordeste 28 Nordeste 0 -- -- 69
2020-05-28 02:00:00 20.9 21 Nordeste 36 Nordeste 0 -- -- 69
2020-05-28 01:00:00 21.1 21 Nordeste 33 Nordeste 0 -- -- 67
2020-05-28 00:00:00 21.2 15 Nordeste 30 Nordeste 0 -- -- 69
2020-05-27 23:00:00 21.4 17 Nordeste 28 Nordeste 0 -- -- 67
2020-05-27 22:00:00 21.3 16 Nordeste 25 Este 0 -- -- 69
2020-05-27 21:00:00 21.5 16 Este 28 Este 0 -- -- 71
2020-05-27 20:00:00 22.4 19 Este 34 Este 0 -- -- 65
2020-05-27 19:00:00 22.5 23 Este 31 Nordeste 0 -- -- 63
2020-05-27 18:00:00 22.7 20 Este 28 Este 0 -- -- 61
2020-05-27 17:00:00 22.6 17 Este 32 Este 0 -- -- 65
2020-05-27 16:00:00 23.2 22 Este 29 Este 0 -- -- 60
2020-05-27 15:00:00 22.9 10 Este 14 Este 0 -- -- 63
2020-05-27 14:00:00 22.7 6 Sudeste 13 Sudeste 0 -- -- 66
2020-05-27 13:00:00 22.6 6 Sur 13 Sur 0 -- -- 67
2020-05-27 12:00:00 21.7 8 Sur 13 Sudoeste 0 -- -- 72
2020-05-27 11:00:00 21.7 11 Sudoeste 12 Sudoeste 0 -- -- 75
2020-05-27 10:00:00 21.7 8 Sudoeste 10 Sudoeste 0 -- -- 75
2020-05-27 09:00:00 21.4 6 Norte 16 Noroeste 0 -- -- 73
2020-05-27 08:00:00 19.2 8 Norte 14 Noroeste 0 -- -- 78
2020-05-27 07:00:00 18.4 6 Noroeste 13 Este 0 -- -- 82
2020-05-27 06:00:00 19.9 9 Sudeste 18 Nordeste 0 -- -- 82
2020-05-27 05:00:00 19.7 11 Este 16 Nordeste 0 -- -- 82
2020-05-27 04:00:00 20.3 13 Nordeste 27 Nordeste 0 -- -- 79
2020-05-27 03:00:00 20.5 11 Nordeste 26 Este 0 -- -- 76
2020-05-27 02:00:00 20.7 21 Nordeste 37 Nordeste 0 -- -- 73
2020-05-27 01:00:00 20.9 23 Nordeste 32 Nordeste 0 -- -- 71
2020-05-27 00:00:00 20.7 19 Este 28 Nordeste 0 -- -- 73
2020-05-26 23:00:00 20.4 15 Este 26 Este 0 -- -- 76
2020-05-26 22:00:00 20.5 15 Este 24 Este 0 -- -- 72
2020-05-26 21:00:00 20.8 21 Este 28 Este 0 -- -- 72
2020-05-26 20:00:00 21.2 21 Este 31 Este 0 -- -- 69
2020-05-26 19:00:00 21.3 20 Este 35 Sudeste 0 -- -- 69
2020-05-26 18:00:00 21.4 22 Este 35 Este 0 -- -- 68
2020-05-26 17:00:00 21.2 23 Este 30 Este 0 -- -- 66
2020-05-26 16:00:00 21.3 22 Este 33 Este 0 -- -- 68
2020-05-26 15:00:00 22.1 24 Este 32 Este 0 -- -- 62
2020-05-26 14:00:00 22.3 22 Este 32 Este 0 -- -- 62
2020-05-26 13:00:00 22.6 17 Este 28 Este 0 -- -- 56
2020-05-26 12:00:00 22.6 23 Este 32 Este 0 -- -- 52
2020-05-26 11:00:00 22.3 14 Este 23 Este 0 -- -- 56
2020-05-26 10:00:00 22.8 21 Nordeste 29 Nordeste 0 -- -- 53
2020-05-26 09:00:00 23.6 2 Este 11 Este 0 -- -- 49
2020-05-26 08:00:00 19.6 9 Noroeste 22 Este 0 -- -- 59
2020-05-26 07:00:00 20 16 Este 30 Este 0 -- -- 67
2020-05-26 06:00:00 20.9 23 Nordeste 35 Nordeste 0 -- -- 50
2020-05-26 05:00:00 21 22 Nordeste 32 Nordeste 0 -- -- 50
2020-05-26 04:00:00 21.2 19 Nordeste 35 Nordeste 0 -- -- 50
2020-05-26 03:00:00 21.2 19 Nordeste 28 Nordeste 0 -- -- 48
2020-05-26 02:00:00 20.8 15 Nordeste 27 Nordeste 0 -- -- 62
2020-05-26 01:00:00 20.7 15 Nordeste 25 Nordeste 0 -- -- 57
2020-05-26 00:00:00 20.4 14 Este 23 Este 0 -- -- 70
2020-05-25 23:00:00 21 19 Este 40 Nordeste 0 -- -- 62
2020-05-25 22:00:00 21.2 23 Este 33 Este 0 -- -- 62
2020-05-25 21:00:00 21.8 26 Nordeste 34 Este 0 -- -- 60
2020-05-25 20:00:00 21.4 23 Este 32 Este 0 -- -- 75
2020-05-25 19:00:00 21 19 Este 24 Sudeste 0 -- -- 79
2020-05-25 18:00:00 20.8 17 Sudeste 22 Sudeste 0 -- -- 83
2020-05-25 17:00:00 21.2 12 Este 19 Sudeste 0 -- -- 83
2020-05-25 16:00:00 20.9 16 Sudeste 26 Sudeste 0 -- -- 82
2020-05-25 15:00:00 21.1 18 Este 26 Este 0 -- -- 81
2020-05-25 14:00:00 21 15 Este 28 Sudeste 0 -- -- 80
2020-05-25 13:00:00 21 22 Sudeste 30 Sudeste 0 -- -- 77
2020-05-25 12:00:00 21 23 Sudeste 29 Sudeste 0 -- -- 75
2020-05-25 11:00:00 20.7 18 Sudeste 23 Sudeste 0 -- -- 80
2020-05-25 10:00:00 20.6 20 Sudeste 27 Sudeste 0 -- -- 78
2020-05-25 09:00:00 21.3 12 Este 15 Este 0 -- -- 74
2020-05-25 08:00:00 18.6 11 Norte 18 Nordeste 0 -- -- 71
2020-05-25 07:00:00 17.9 10 Norte 14 Norte 0 -- -- 76
2020-05-25 06:00:00 17.9 6 Norte 13 Norte 0 -- -- 77
2020-05-25 05:00:00 18.6 5 Norte 14 Norte 0 -- -- 78
2020-05-25 04:00:00 18.2 8 Noroeste 19 Norte 0 -- -- 76
2020-05-25 03:00:00 19.1 9 Norte 20 Norte 0 -- -- 78
2020-05-25 02:00:00 20 13 Nordeste 22 Este 0 -- -- 83
2020-05-25 01:00:00 20.8 18 Este 35 Nordeste 0 -- -- 76
2020-05-25 00:00:00 21.2 22 Nordeste 30 Nordeste 0 -- -- 65
2020-05-24 23:00:00 21 14 Este 22 Este 0 -- -- 71
2020-05-24 22:00:00 21 13 Este 24 Este 0 -- -- 77
2020-05-24 21:00:00 21.2 18 Este 24 Este 0 -- -- 71
2020-05-24 20:00:00 21.5 15 Sudeste 22 Sudeste 0 -- -- 79
2020-05-24 19:00:00 21.4 19 Sudeste 26 Sudeste 0 -- -- 81
2020-05-24 18:00:00 21.5 21 Sudeste 25 Sudeste 0 -- -- 79
2020-05-24 17:00:00 21.6 19 Sudeste 28 Sudeste 0 -- -- 75
2020-05-24 16:00:00 21.5 21 Sudeste 28 Sudeste 0 -- -- 73
2020-05-24 15:00:00 21.7 24 Sudeste 32 Sudeste 0 -- -- 72
2020-05-24 14:00:00 22.8 14 Este 22 Sudeste 0 -- -- 70
2020-05-24 13:00:00 21.8 16 Sudeste 19 Sudeste 0 -- -- 72
2020-05-24 12:00:00 22 13 Este 18 Sudeste 0 -- -- 72
2020-05-24 11:00:00 21.6 13 Sudeste 17 Este 0 -- -- 74
2020-05-24 10:00:00 21.9 13 Este 23 Sudeste 0 -- -- 68
2020-05-24 09:00:00 23.4 14 Este 22 Nordeste 0 -- -- 56
2020-05-24 08:00:00 21.9 7 Norte 15 Norte 0 -- -- 51
2020-05-24 07:00:00 20 11 Norte 18 Norte 0 -- -- 56
2020-05-24 06:00:00 20.8 6 Norte 16 Norte 0 -- -- 55
2020-05-24 05:00:00 20.9 12 Norte 17 Norte 0 -- -- 55
2020-05-24 04:00:00 21 11 Norte 18 Norte 0 -- -- 56
2020-05-24 03:00:00 20.9 11 Norte 16 Norte 0 -- -- 60
2020-05-24 02:00:00 21.5 9 Norte 16 Norte 0 -- -- 58
2020-05-24 01:00:00 21.6 10 Norte 17 Noroeste 0 -- -- 61
2020-05-24 00:00:00 21.8 8 Norte 11 Norte 0 -- -- 62
2020-05-23 23:00:00 22.4 6 Norte 8 Norte 0 -- -- 59
2020-05-23 22:00:00 22.9 0 Calma 5 Sudoeste 0 -- -- 55
2020-05-23 21:00:00 23.6 0 Calma 5 Nordeste 0 -- -- 55
2020-05-23 20:00:00 26.5 0 Calma 6 Este 0 -- -- 45
2020-05-23 19:00:00 25.9 6 Nordeste 8 Este 0 -- -- 45
2020-05-23 18:00:00 26.9 4 Nordeste 7 Este 0 -- -- 45
2020-05-23 17:00:00 25.7 3 Este 8 Sudoeste 0 -- -- 51
2020-05-23 16:00:00 25.4 5 Sudoeste 7 Sudoeste 0 -- -- 47
2020-05-23 15:00:00 26.3 3 Sur 14 Sudeste 0 -- -- 43
2020-05-23 14:00:00 23.3 10 Sudeste 26 Este 0 -- -- 65
2020-05-23 13:00:00 22.9 21 Sudeste 27 Sudeste 0 -- -- 63
2020-05-23 12:00:00 22.9 22 Sudeste 28 Sudeste 0 -- -- 64
2020-05-23 11:00:00 24.1 9 Sudeste 18 Sudeste 0 -- -- 58
2020-05-23 10:00:00 26.7 5 Norte 16 Norte 0 -- -- 46
2020-05-23 09:00:00 23 10 Norte 18 Norte 0 -- -- 52
2020-05-23 08:00:00 20.5 13 Norte 19 Norte 0 -- -- 62
2020-05-23 07:00:00 19.5 10 Norte 19 Norte 0 -- -- 66
2020-05-23 06:00:00 20 11 Norte 15 Noroeste 0 -- -- 63
2020-05-23 05:00:00 20 5 Norte 13 Norte 0 -- -- 64
2020-05-23 04:00:00 20.1 10 Norte 17 Noroeste 0 -- -- 70
2020-05-23 03:00:00 19.9 9 Norte 14 Norte 0 -- -- 75
2020-05-23 02:00:00 20.6 5 Norte 9 Noroeste 0 -- -- 78
2020-05-23 01:00:00 21.4 2 Sur 9 Norte 0 -- -- 79
2020-05-23 00:00:00 21.4 5 Norte 8 Norte 0 -- -- 80
2020-05-22 23:00:00 21.6 4 Nordeste 5 Nordeste 0 -- -- 79
2020-05-22 22:00:00 22 2 Nordeste 4 Este 0 -- -- 83
2020-05-22 21:00:00 22.7 0 Calma 3 Este 0 -- -- 76
2020-05-22 20:00:00 23.8 3 Este 5 Sudeste 0 -- -- 71
2020-05-22 19:00:00 23.5 2 Sudeste 6 Sudeste 0 -- -- 75
2020-05-22 18:00:00 23.8 3 Sudeste 5 Sudeste 0 -- -- 72
2020-05-22 17:00:00 24.2 2 Este 5 Este 0 -- -- 67
2020-05-22 16:00:00 23.7 3 Sudeste 5 Sudeste 0 -- -- 63
2020-05-22 15:00:00 23 4 Este 6 Sudeste 0 -- -- 69
2020-05-22 14:00:00 23.7 0 Calma 4 Sudeste 0 -- -- 61
2020-05-22 13:00:00 23.8 2 Sudeste 7 Sudoeste 0 -- -- 58
2020-05-22 12:00:00 23.2 5 Sudoeste 12 Sudoeste 0 -- -- 75
2020-05-22 11:00:00 21.3 10 Sudoeste 13 Sudoeste 0 -- -- 76
2020-05-22 10:00:00 21.9 8 Sudoeste 12 Sudoeste 0 -- -- 78
2020-05-22 09:00:00 22.5 5 Nordeste 11 Norte 0 -- -- 65
2020-05-22 08:00:00 20.8 3 Oeste 12 Noroeste 0 -- -- 74
2020-05-22 07:00:00 19.1 8 Noroeste 12 Noroeste 0 -- -- 78
2020-05-22 06:00:00 19.5 8 Noroeste 13 Norte 0 -- -- 77
2020-05-22 05:00:00 19.9 8 Noroeste 11 Norte 0 -- -- 76
2020-05-22 04:00:00 20.6 4 Norte 10 Norte 0 -- -- 75
2020-05-22 03:00:00 20.3 6 Norte 9 Noroeste 0 -- -- 77
2020-05-22 02:00:00 20.6 4 Norte 8 Norte 0 -- -- 81
2020-05-22 01:00:00 20.8 4 Norte 9 Norte 0 -- -- 84
2020-05-22 00:00:00 20.8 3 Norte 6 Nordeste 0 -- -- 91
2020-05-21 23:00:00 21 4 Nordeste 5 Nordeste 0 -- -- 90
2020-05-21 22:00:00 21.6 0 Calma 3 Este 0 -- -- 88
2020-05-21 21:00:00 21.9 0 Calma 3 Sur 0 -- -- 85
2020-05-21 20:00:00 23 0 Calma 5 Este 0 -- -- 78
2020-05-21 19:00:00 23.7 4 Nordeste 11 Nordeste 0 -- -- 75
2020-05-21 18:00:00 24.4 7 Nordeste 11 Nordeste 0 -- -- 69
2020-05-21 17:00:00 23.3 3 Este 8 Este 0 -- -- 71
2020-05-21 16:00:00 23.6 4 Nordeste 9 Este 0 -- -- 72
2020-05-21 15:00:00 22.2 6 Este 8 Este 0 -- -- 81
2020-05-21 14:00:00 22.8 4 Este 8 Nordeste 0 -- -- 78
2020-05-21 13:00:00 22.7 5 Este 8 Este 0 -- -- 79
2020-05-21 12:00:00 21.5 3 Este 6 Sudeste 0 -- -- 81
2020-05-21 11:00:00 22.1 4 Este 9 Sudeste 0 -- -- 77
2020-05-21 10:00:00 22 3 Sur 6 Norte 0 -- -- 77
2020-05-21 09:00:00 21.5 5 Nordeste 10 Oeste 0 -- -- 76
2020-05-21 08:00:00 20.3 7 Oeste 10 Oeste 0 -- -- 77
2020-05-21 07:00:00 19 0 Calma 7 Oeste 0 -- -- 78
2020-05-21 06:00:00 19 3 Noroeste 12 Oeste 0 -- -- 85
2020-05-21 05:00:00 19.3 9 Oeste 13 Oeste 0 -- -- 87
2020-05-21 04:00:00 19.7 6 Oeste 8 Oeste 0 -- -- 86
2020-05-21 03:00:00 20.3 0 Calma 7 Nordeste 0 -- -- 83
2020-05-21 02:00:00 20.5 7 Nordeste 16 Nordeste 0 -- -- 82
2020-05-21 01:00:00 20.5 10 Nordeste 15 Nordeste 0 -- -- 87
2020-05-21 00:00:00 20.7 4 Nordeste 7 Nordeste 0 -- -- 84
2020-05-20 23:00:00 21.4 0 Calma 6 Sudoeste 0 -- -- 81
2020-05-20 22:00:00 21.9 0 Calma 4 Nordeste 0 -- -- 80
2020-05-20 21:00:00 22.1 3 Sudoeste 11 Nordeste 0 -- -- 75
2020-05-20 20:00:00 24.2 6 Nordeste 8 Nordeste 0 -- -- 58
2020-05-20 19:00:00 23.1 4 Este 7 Sudoeste 0 -- -- 61
2020-05-20 18:00:00 23.4 5 Sudoeste 13 Sudoeste 0 -- -- 64
2020-05-20 17:00:00 22.2 10 Sudoeste 12 Sudoeste 0 -- -- 76
2020-05-20 16:00:00 22.3 6 Sudoeste 8 Sudoeste 0 -- -- 76
2020-05-20 15:00:00 21.7 5 Sudoeste 8 Sur 0 -- -- 75
2020-05-20 14:00:00 22.3 4 Sudoeste 6 Sur 0 -- -- 65
2020-05-20 13:00:00 20.6 4 Sur 7 Sur 0 -- -- 73
2020-05-20 12:00:00 20.8 3 Sur 10 Sudoeste 0 -- -- 74
2020-05-20 11:00:00 22.4 4 Sudoeste 13 Sudoeste 0 -- -- 70
2020-05-20 10:00:00 19.5 10 Sudoeste 15 Sur 0 -- -- 76
2020-05-20 09:00:00 19.1 4 Norte 6 Oeste 0 -- -- 71
2020-05-20 08:00:00 19.4 3 Oeste 9 Norte 0 -- -- 69
2020-05-20 07:00:00 17.9 3 Noroeste 14 Oeste 0 -- -- 71
2020-05-20 06:00:00 18.7 7 Oeste 16 Sudoeste 0 -- -- 80
2020-05-20 05:00:00 18.4 7 Noroeste 16 Norte 0 -- -- 66
2020-05-20 04:00:00 18.1 6 Norte 12 Norte 0 -- -- 70
2020-05-20 03:00:00 18.4 3 Norte 9 Noroeste 0 -- -- 71
2020-05-20 02:00:00 18.9 2 Oeste 11 Norte 0 -- -- 74
2020-05-20 01:00:00 18.8 5 Oeste 8 Oeste 0 -- -- 76
2020-05-20 00:00:00 19.3 0 Calma 3 Sudoeste 0 -- -- 77
2020-05-19 23:00:00 19.4 3 Sudoeste 8 Sudoeste 0 -- -- 75
2020-05-19 22:00:00 19.7 0 Calma 10 Oeste 0 -- -- 65
2020-05-19 21:00:00 20.1 12 Sudoeste 19 Sudoeste 0 -- -- 76
2020-05-19 20:00:00 22.2 5 Sudoeste 11 Sudoeste 0 -- -- 68
2020-05-19 19:00:00 20.7 10 Sudoeste 18 Sudoeste 0 -- -- 71
2020-05-19 18:00:00 21 14 Sudoeste 17 Sudoeste 0 -- -- 75
2020-05-19 17:00:00 21.3 7 Sudoeste 9 Sudoeste 0 -- -- 76
2020-05-19 16:00:00 20.9 5 Sudoeste 9 Sur 0 -- -- 74
2020-05-19 15:00:00 20.6 5 Sur 7 Sur 0 -- -- 83
2020-05-19 14:00:00 21 6 Sudoeste 9 Sudoeste 0 -- -- 81
2020-05-19 13:00:00 20.4 6 Sudoeste 8 Sudoeste 0 -- -- 83
2020-05-19 12:00:00 19.5 6 Sur 8 Sudoeste 0 -- -- 78
2020-05-19 11:00:00 20.2 4 Sudoeste 11 Sudoeste 0 -- -- 75
2020-05-19 10:00:00 19.3 4 Sudoeste 6 Sudoeste 0 -- -- 75
2020-05-19 09:00:00 19.4 0 Calma 4 Sudoeste 0 -- -- 70
2020-05-19 08:00:00 18.2 0 Calma 12 Noroeste 0 -- -- 74
2020-05-19 07:00:00 16.6 5 Noroeste 11 Noroeste 0 -- -- 78
2020-05-19 06:00:00 16.8 8 Norte 11 Norte 0 -- -- 79
2020-05-19 05:00:00 16.9 8 Norte 14 Norte 0 -- -- 80
2020-05-19 04:00:00 17 5 Noroeste 8 Norte 0 -- -- 83
2020-05-19 03:00:00 17.5 2 Nordeste 8 Norte 0 -- -- 83
2020-05-19 02:00:00 18 5 Norte 8 Norte 0 -- -- 82
2020-05-19 01:00:00 18.3 0 Calma 4 Norte 0 -- -- 84
2020-05-19 00:00:00 18.6 3 Norte 9 Sudoeste 0 -- -- 79
2020-05-18 23:00:00 19.1 3 Sudoeste 12 Sudoeste 0 -- -- 83
2020-05-18 22:00:00 19.4 9 Sudoeste 16 Sudoeste 0 -- -- 84
2020-05-18 21:00:00 19.9 15 Sudoeste 17 Sudoeste 0 -- -- 81
2020-05-18 20:00:00 20.2 14 Sudoeste 15 Sudoeste 0 -- -- 81
2020-05-18 19:00:00 20.5 9 Sudoeste 10 Sudoeste 0 -- -- 80
2020-05-18 18:00:00 20.2 8 Sudoeste 10 Sur 0 -- -- 80
2020-05-18 17:00:00 20.1 8 Sudoeste 10 Sudoeste 0 -- -- 82
2020-05-18 16:00:00 19.7 8 Sudoeste 10 Sudoeste 0 -- -- 83
2020-05-18 15:00:00 19.8 4 Sudoeste 8 Sur 0 -- -- 82
2020-05-18 14:00:00 18.8 8 Sudoeste 9 Sudoeste 0 -- -- 82
2020-05-18 13:00:00 19.4 6 Sudoeste 10 Sudoeste 0 -- -- 79
2020-05-18 12:00:00 18 8 Sur 10 Sudoeste 0 -- -- 79
2020-05-18 11:00:00 18.3 9 Sudoeste 12 Sudoeste 0 -- -- 77
2020-05-18 10:00:00 19.1 6 Oeste 11 Sudoeste 0 -- -- 80
2020-05-18 09:00:00 18.4 4 Noroeste 12 Norte 0 -- -- 73
2020-05-18 08:00:00 15.9 8 Norte 12 Norte 0 -- -- 82
2020-05-18 07:00:00 15.2 9 Norte 14 Norte 0 -- -- 84
2020-05-18 06:00:00 15.2 7 Norte 14 Norte 0 -- -- 85
2020-05-18 05:00:00 15.4 9 Norte 13 Norte 0 -- -- 86
2020-05-18 04:00:00 15.6 9 Norte 14 Noroeste 0 -- -- 88
2020-05-18 03:00:00 15.8 9 Norte 12 Norte 0 -- -- 88
2020-05-18 02:00:00 15.9 0 Calma 5 Oeste 0 -- -- 89
2020-05-18 01:00:00 16.4 4 Noroeste 10 Noroeste 0 -- -- 88
2020-05-18 00:00:00 16.9 8 Norte 11 Norte 0 -- -- 87
2020-05-17 23:00:00 17.1 4 Oeste 9 Oeste 0 -- -- 78
2020-05-17 22:00:00 17.6 3 Este 5 Este 0 -- -- 76
2020-05-17 21:00:00 18.1 0 Calma 9 Sudeste 0 -- -- 77
2020-05-17 20:00:00 18.7 5 Sudeste 8 Sudeste 0 -- -- 77
2020-05-17 19:00:00 18.7 4 Sudoeste 5 Oeste 0 -- -- 77
2020-05-17 18:00:00 19 3 Oeste 8 Sur 0.2 -- -- 83
2020-05-17 17:00:00 18.2 7 Sur 13 Sudoeste 0 -- -- 84
2020-05-17 16:00:00 18.5 12 Sudoeste 19 Sudoeste 0 -- -- 77
2020-05-17 15:00:00 17.7 6 Sudeste 9 Sudeste 0 -- -- 79
2020-05-17 14:00:00 17.9 5 Sudoeste 8 Sur 0 -- -- 77
2020-05-17 13:00:00 17.5 5 Sur 7 Sudeste 0 -- -- 75
2020-05-17 12:00:00 18.6 4 Este 8 Este 0 -- -- 75
2020-05-17 11:00:00 18.7 6 Este 9 Este 0 -- -- 72
2020-05-17 10:00:00 17.3 0 Calma 8 Sur 0 -- -- 80
2020-05-17 09:00:00 16.7 5 Noroeste 18 Norte 0 -- -- 76
2020-05-17 08:00:00 15.3 12 Norte 18 Norte 0 -- -- 78
2020-05-17 07:00:00 14.7 9 Norte 16 Norte 0 -- -- 80
2020-05-17 06:00:00 14.7 8 Norte 15 Norte 0 -- -- 81
2020-05-17 05:00:00 15 7 Norte 15 Norte 0 -- -- 80
2020-05-17 04:00:00 15.2 5 Norte 19 Norte 0 -- -- 79
2020-05-17 03:00:00 15.3 13 Norte 18 Norte 0 -- -- 78
2020-05-17 02:00:00 15.2 12 Norte 21 Norte 0 -- -- 79
2020-05-17 01:00:00 15.5 7 Norte 16 Norte 0 -- -- 79
2020-05-17 00:00:00 15.8 10 Norte 16 Noroeste 0 -- -- 77
2020-05-16 23:00:00 16 13 Norte 19 Norte 0 -- -- 80
2020-05-16 22:00:00 16.7 10 Norte 15 Norte 0 -- -- 78
2020-05-16 21:00:00 16.9 10 Norte 18 Norte 0 -- -- 76
2020-05-16 20:00:00 16.7 7 Norte 18 Noroeste 0 -- -- 73
2020-05-16 19:00:00 16.4 13 Norte 30 Noroeste 0 -- -- 73
2020-05-16 18:00:00 18.8 7 Noroeste 19 Noroeste 0 -- -- 61
2020-05-16 17:00:00 17.8 8 Sudoeste 9 Sudoeste 0 -- -- 72
2020-05-16 16:00:00 17.8 3 Sur 9 Sur 0 -- -- 79
2020-05-16 15:00:00 17.3 6 Sur 8 Sur 0 -- -- 75
2020-05-16 14:00:00 17.4 4 Sudeste 7 Sur 0 -- -- 79
2020-05-16 13:00:00 17.1 6 Sur 9 Sur 0 -- -- 78
2020-05-16 12:00:00 17.5 5 Sudoeste 9 Sur 0 -- -- 76
2020-05-16 11:00:00 16.7 4 Sudeste 8 Sur 0 -- -- 77
2020-05-16 10:00:00 17.1 6 Sur 9 Sur 0 -- -- 75
2020-05-16 09:00:00 17.8 3 Norte 13 Norte 0 -- -- 70
2020-05-16 08:00:00 15.2 7 Norte 13 Noroeste 0 -- -- 78
2020-05-16 07:00:00 14.6 8 Noroeste 13 Norte 0 -- -- 82
2020-05-16 06:00:00 14.8 8 Norte 12 Norte 0 -- -- 84
2020-05-16 05:00:00 15.2 5 Norte 13 Norte 0 -- -- 83
2020-05-16 04:00:00 15.3 8 Norte 13 Norte 0 -- -- 83
2020-05-16 03:00:00 15.3 7 Norte 12 Norte 0 -- -- 85
2020-05-16 02:00:00 16 4 Noroeste 9 Noroeste 0 -- -- 83
2020-05-16 01:00:00 16.3 3 Noroeste 8 Noroeste 0 -- -- 83
2020-05-16 00:00:00 17 4 Noroeste 6 Noroeste 0 -- -- 79
2020-05-15 23:00:00 16.9 0 Calma 4 Este 0 -- -- 79
2020-05-15 22:00:00 17.2 0 Calma 6 Sur 0 -- -- 74
2020-05-15 21:00:00 17.1 5 Sur 6 Sudoeste 0 -- -- 78
2020-05-15 20:00:00 17.5 4 Sudoeste 5 Sudoeste 0 -- -- 75
2020-05-15 19:00:00 17.5 4 Sur 11 Sur 0 -- -- 78
2020-05-15 18:00:00 17.6 10 Sur 12 Sur 0 -- -- 77
2020-05-15 17:00:00 17.8 6 Sudoeste 8 Sudoeste 0 -- -- 70
2020-05-15 16:00:00 17.6 4 Sur 6 Sudeste 0 -- -- 73
2020-05-15 15:00:00 17.6 5 Sudeste 7 Este 0 -- -- 72
2020-05-15 14:00:00 17.7 6 Este 14 Sudeste 0 -- -- 75
2020-05-15 13:00:00 17.1 10 Sudeste 16 Este 0 -- -- 76
2020-05-15 12:00:00 17.8 12 Este 19 Este 0 -- -- 73
2020-05-15 11:00:00 17.1 15 Este 19 Este 0 -- -- 76
2020-05-15 10:00:00 18.2 12 Este 15 Este 0 -- -- 73
2020-05-15 09:00:00 16 10 Norte 17 Norte 0 -- -- 76
2020-05-15 08:00:00 13.9 12 Norte 18 Noroeste 0 -- -- 83
2020-05-15 07:00:00 13.1 12 Norte 18 Norte 0 -- -- 85
2020-05-15 06:00:00 13.2 11 Norte 16 Noroeste 0 -- -- 86
2020-05-15 05:00:00 13.3 11 Norte 15 Norte 0 -- -- 86
2020-05-15 04:00:00 13.3 9 Norte 20 Norte 0 -- -- 88
2020-05-15 03:00:00 13.7 10 Norte 16 Norte 0 -- -- 87
2020-05-15 02:00:00 14.2 9 Norte 13 Noroeste 0 -- -- 86
2020-05-15 01:00:00 14.7 9 Norte 14 Norte 0 -- -- 86
2020-05-15 00:00:00 14.7 9 Norte 17 Noroeste 0 -- -- 84
2020-05-14 23:00:00 14.5 10 Norte 17 Noroeste 0 -- -- 86
2020-05-14 22:00:00 14.5 7 Norte 58 Sudoeste 1.8 -- -- 85
2020-05-14 21:00:00 17 11 Sur 19 Sur 0 -- -- 79
2020-05-14 20:00:00 17.3 12 Sudoeste 21 Sur 0 -- -- 79
2020-05-14 19:00:00 16.9 17 Sur 35 Sudoeste 0 -- -- 78
2020-05-14 18:00:00 17 17 Sur 24 Sur 0 -- -- 79
2020-05-14 17:00:00 16.7 15 Sur 28 Sudoeste 0 -- -- 77
2020-05-14 16:00:00 16.4 22 Sur 33 Sudoeste 0 -- -- 75
2020-05-14 15:00:00 17 18 Sudoeste 32 Oeste 0 -- -- 77
2020-05-14 14:00:00 17.3 16 Sudoeste 31 Sudoeste 0 -- -- 75
2020-05-14 13:00:00 14.7 27 Sudoeste 42 Sudoeste -- -- -- 88
2020-05-14 12:00:00 15.2 4 Oeste -- -- -- -- -- 89
2020-05-14 11:00:00 15.3 5 Sudoeste 16 Oeste -- -- -- 84
2020-05-14 10:00:00 14.9 6 Oeste 13 Oeste -- -- -- 87
2020-05-14 09:00:00 15 3 Noroeste 6 Noroeste -- -- -- 88
2020-05-14 08:00:00 12.8 3 Noroeste 12 Noroeste -- -- -- 91
2020-05-14 07:00:00 12.6 5 Norte 10 Norte -- -- -- 92
2020-05-14 06:00:00 12.6 5 Noroeste 39 Sudoeste -- -- -- 91
2020-05-14 05:00:00 13.4 20 Sudoeste 35 Sudoeste -- -- -- 92
2020-05-14 04:00:00 13.3 6 Oeste -- -- -- -- -- 91
2020-05-14 03:00:00 15.1 6 Oeste 21 Sudoeste -- -- -- 84
2020-05-14 02:00:00 15.1 4 Oeste 9 Sudoeste -- -- -- 81
2020-05-14 01:00:00 14.8 0 Calma 31 Oeste -- -- -- 81
2020-05-14 00:00:00 15.3 23 Oeste 33 Oeste -- -- -- 82
2020-05-13 23:00:00 15 17 Oeste 37 Oeste -- -- -- 84
2020-05-13 22:00:00 15.5 14 Sudoeste 29 Sudoeste -- -- -- 88
2020-05-13 21:00:00 14.6 9 Sudoeste -- -- -- -- -- 93
2020-05-13 20:00:00 -- -- -- -- -- -- -- -- --
2020-05-13 19:00:00 16.8 10 Sudoeste 13 Sur -- -- -- 85
2020-05-13 18:00:00 17.9 10 Sudoeste 15 Sudoeste -- -- -- 77
2020-05-13 17:00:00 18.5 6 Este 13 Nordeste -- -- -- 75
2020-05-13 16:00:00 19.2 10 Este 18 Este -- -- -- 72
2020-05-13 15:00:00 17.7 10 Sudeste 15 Sudeste -- -- -- 75
2020-05-13 14:00:00 18.2 4 Sudeste 12 Sur -- -- -- 73
2020-05-13 13:00:00 17.3 9 Sur 12 Sudoeste -- -- -- 76
2020-05-13 12:00:00 17.1 8 Sudoeste 12 Sur -- -- -- 76
2020-05-13 11:00:00 16.8 9 Sudoeste 11 Sudoeste -- -- -- 77
2020-05-13 10:00:00 16.9 0 Calma 4 Sur -- -- -- 69
2020-05-13 09:00:00 16.4 3 Norte 10 Noroeste -- -- -- 70
2020-05-13 08:00:00 12.9 9 Norte 14 Noroeste -- -- -- 79
2020-05-13 07:00:00 12.5 9 Noroeste 15 Norte -- -- -- 82
2020-05-13 06:00:00 13.4 3 Norte 8 Norte -- -- -- 78
2020-05-13 05:00:00 13.8 4 Oeste 10 Noroeste -- -- -- 77
2020-05-13 04:00:00 14.3 8 Oeste 13 Oeste -- -- -- 73
2020-05-13 03:00:00 14.4 3 Oeste 8 Noroeste -- -- -- 73
2020-05-13 02:00:00 15.1 6 Noroeste 13 Oeste -- -- -- 72
2020-05-13 01:00:00 14.8 8 Oeste 11 Oeste -- -- -- 77
2020-05-13 00:00:00 15.6 6 Oeste 13 Sudoeste -- -- -- 73
2020-05-12 23:00:00 15.8 4 Noroeste 17 Oeste -- -- -- 71
2020-05-12 22:00:00 16.8 14 Oeste 23 Oeste -- -- -- 71
2020-05-12 21:00:00 17.4 13 Oeste 28 Sudoeste -- -- -- 69
2020-05-12 20:00:00 18.2 5 Sudoeste 13 Sudoeste -- -- -- 77
2020-05-12 19:00:00 16.8 12 Sudoeste 17 Sudoeste -- -- -- 83
2020-05-12 18:00:00 16.3 12 Sudoeste 18 Sudoeste -- -- -- 82
2020-05-12 17:00:00 15.9 15 Sur 21 Sur -- -- -- 82
2020-05-12 16:00:00 16.1 13 Sudoeste 17 Sudoeste -- -- -- 81
2020-05-12 15:00:00 15.3 12 Sudoeste 19 Sudoeste -- -- -- 81
2020-05-12 14:00:00 15.7 14 Sudoeste 22 Sudoeste -- -- -- 82
2020-05-12 13:00:00 15.4 13 Sur 16 Sudoeste -- -- -- 81
2020-05-12 12:00:00 15.5 5 Sudoeste 10 Norte -- -- -- 83
2020-05-12 11:00:00 13.9 5 Sudoeste 14 Oeste -- -- -- 90
2020-05-12 10:00:00 13.6 6 Este 13 Norte -- -- -- 91
2020-05-12 09:00:00 13.4 6 Sur 13 Nordeste -- -- -- 91
2020-05-12 08:00:00 14.1 5 Norte 10 Noroeste -- -- -- 90
2020-05-12 07:00:00 15 3 Nordeste 15 Nordeste -- -- -- 91
2020-05-12 06:00:00 15 2 Sudeste 14 Este -- -- -- 92
2020-05-12 05:00:00 16 12 Nordeste 18 Nordeste -- -- -- 90
2020-05-12 04:00:00 16.4 0 Calma 24 Sudoeste -- -- -- 84
2020-05-12 03:00:00 16.5 23 Sudoeste 30 Sudoeste -- -- -- 87
2020-05-12 02:00:00 17.4 3 Oeste 19 Noroeste -- -- -- 69
2020-05-12 01:00:00 17 6 Norte 9 Norte -- -- -- 71
2020-05-12 00:00:00 17.3 4 Norte 10 Sudoeste -- -- -- 71
2020-05-11 23:00:00 18.1 4 Oeste 12 Norte -- -- -- 69
2020-05-11 22:00:00 17.9 6 Sudoeste 12 Oeste -- -- -- 79
2020-05-11 21:00:00 19 10 Oeste 28 Sudoeste -- -- -- 72
2020-05-11 20:00:00 18.9 23 Sudoeste 31 Sudoeste -- -- -- 77
2020-05-11 19:00:00 19.4 22 Sudoeste 33 Oeste -- -- -- 72
2020-05-11 18:00:00 20.8 26 Oeste 44 Oeste -- -- -- 66
2020-05-11 17:00:00 18.8 18 Sudoeste 24 Sudoeste -- -- -- 77
2020-05-11 16:00:00 18.5 21 Sudoeste 31 Sudoeste -- -- -- 77
2020-05-11 15:00:00 18.4 25 Sudoeste 33 Sudoeste -- -- -- 78
2020-05-11 14:00:00 18 26 Sudoeste 35 Sudoeste -- -- -- 80
2020-05-11 13:00:00 17.9 30 Sudoeste 37 Sudoeste -- -- -- 80
2020-05-11 12:00:00 17.7 28 Sudoeste 35 Sudoeste -- -- -- 81
2020-05-11 11:00:00 17 26 Sudoeste 31 Sudoeste -- -- -- 87
2020-05-11 10:00:00 16.8 21 Sudoeste 27 Sudoeste -- -- -- 88
2020-05-11 09:00:00 16.7 9 Sudoeste 22 Sudoeste -- -- -- 86
2020-05-11 08:00:00 16.5 12 Oeste 22 Oeste -- -- -- 87
2020-05-11 07:00:00 16.6 11 Oeste 19 Sudoeste -- -- -- 82
2020-05-11 06:00:00 16.7 2 Noroeste 20 Oeste -- -- -- 75
2020-05-11 05:00:00 16.3 18 Sudoeste 24 Sudoeste -- -- -- 85
2020-05-11 04:00:00 16.4 16 Sudoeste 27 Sudoeste -- -- -- 85
2020-05-11 03:00:00 16.4 15 Sudoeste 23 Sudoeste -- -- -- 85
2020-05-11 02:00:00 16.4 15 Oeste 21 Sudoeste -- -- -- 82
2020-05-11 01:00:00 16.5 15 Sudoeste 24 Sudoeste -- -- -- 77
2020-05-11 00:00:00 16.9 15 Sudoeste 29 Sudoeste -- -- -- 76
2020-05-10 23:00:00 17.6 18 Sudoeste 27 Oeste -- -- -- 75
2020-05-10 22:00:00 17.8 18 Sudoeste 30 Sudoeste -- -- -- 73
2020-05-10 21:00:00 18.5 20 Sudoeste 39 Oeste -- -- -- 63
2020-05-10 20:00:00 21.5 14 Oeste 33 Oeste -- -- -- 46
2020-05-10 19:00:00 20.9 16 Oeste 50 Sudoeste -- -- -- 49
2020-05-10 18:00:00 19.7 37 Sudoeste 60 Oeste -- -- -- 61
2020-05-10 17:00:00 20 26 Oeste 45 Sudoeste -- -- -- 64
2020-05-10 16:00:00 17.8 32 Sudoeste 43 Sudoeste -- -- -- 81
2020-05-10 15:00:00 17.4 23 Sudoeste 34 Sudoeste -- -- -- 84
2020-05-10 14:00:00 16.6 36 Sudoeste 47 Sudoeste -- -- -- 88
2020-05-10 13:00:00 17.5 17 Sudoeste 22 Sudoeste -- -- -- 79
2020-05-10 12:00:00 18.2 9 Oeste 23 Oeste -- -- -- 72
2020-05-10 11:00:00 18.2 9 Noroeste 30 Sudoeste -- -- -- 63
2020-05-10 10:00:00 17.3 22 Sudoeste 30 Oeste -- -- -- 82
2020-05-10 09:00:00 17.6 13 Oeste 27 Sudoeste -- -- -- 76
2020-05-10 08:00:00 16.7 21 Sudoeste 32 Sudoeste -- -- -- 82
2020-05-10 07:00:00 16.6 13 Oeste 19 Oeste -- -- -- 80
2020-05-10 06:00:00 16 8 Oeste 25 Oeste -- -- -- 76
2020-05-10 05:00:00 16.4 9 Oeste 19 Sudoeste -- -- -- 79
2020-05-10 04:00:00 16.8 14 Sudoeste 23 Sudoeste -- -- -- 82
2020-05-10 03:00:00 17 10 Sudoeste 24 Oeste -- -- -- 78
2020-05-10 02:00:00 17.7 17 Oeste 36 Oeste -- -- -- 76
2020-05-10 01:00:00 17.6 23 Oeste 38 Sudoeste -- -- -- 67
2020-05-10 00:00:00 17.5 18 Sudoeste 37 Sudoeste -- -- -- 86
2020-05-09 23:00:00 17.3 27 Sudoeste 41 Sudoeste -- -- -- 88
2020-05-09 22:00:00 18.6 34 Sudoeste 43 Sudoeste -- -- -- 78
2020-05-09 21:00:00 18.9 32 Sudoeste 45 Oeste -- -- -- 73
2020-05-09 20:00:00 19.6 40 Sudoeste 53 Sudoeste -- -- -- 69
2020-05-09 19:00:00 19.3 40 Sudoeste 50 Sudoeste -- -- -- 70
2020-05-09 18:00:00 20.2 43 Sudoeste 52 Sudoeste -- -- -- 66
2020-05-09 17:00:00 19.5 42 Sudoeste 53 Sudoeste -- -- -- 69
2020-05-09 16:00:00 19.8 45 Sudoeste 53 Sudoeste -- -- -- 68
2020-05-09 15:00:00 20.3 36 Sudoeste 45 Sudoeste -- -- -- 68
2020-05-09 14:00:00 19.9 35 Sudoeste 46 Sudoeste -- -- -- 68
2020-05-09 13:00:00 19.7 35 Sudoeste 47 Sudoeste -- -- -- 66
2020-05-09 12:00:00 19.3 37 Sudoeste 46 Sudoeste -- -- -- 68
2020-05-09 11:00:00 20.1 22 Sudoeste 33 Sudoeste -- -- -- 61
2020-05-09 10:00:00 21 9 Oeste 27 Sudoeste -- -- -- 62
2020-05-09 09:00:00 19.2 4 Noroeste 12 Oeste -- -- -- 73
2020-05-09 08:00:00 17.3 5 Oeste 14 Norte -- -- -- 80
2020-05-09 07:00:00 16.1 6 Noroeste 10 Norte -- -- -- 82
2020-05-09 06:00:00 16.4 7 Norte 11 Norte -- -- -- 82
2020-05-09 05:00:00 16.8 2 Noroeste 6 Noroeste -- -- -- 82
2020-05-09 04:00:00 17.2 2 Norte 12 Oeste -- -- -- 80
2020-05-09 03:00:00 17.6 8 Oeste 15 Sudoeste -- -- -- 82
2020-05-09 02:00:00 17.8 8 Norte 11 Noroeste -- -- -- 85
2020-05-09 01:00:00 18.8 4 Norte 7 Norte -- -- -- 87
2020-05-09 00:00:00 19 4 Este 6 Este -- -- -- 88
2020-05-08 23:00:00 19.1 8 Sudoeste 15 Sudoeste -- -- -- 87
2020-05-08 22:00:00 20 0 Calma 12 Sudoeste -- -- -- 79
2020-05-08 21:00:00 20.1 2 Sudoeste 7 Oeste -- -- -- 77
2020-05-08 20:00:00 21.3 6 Sudoeste 9 Sudoeste -- -- -- 81
2020-05-08 19:00:00 20.6 4 Sur 6 Sudeste -- -- -- 78
2020-05-08 18:00:00 21.6 3 Este 5 Este -- -- -- 74
2020-05-08 17:00:00 21.1 4 Este 6 Este -- -- -- 76
2020-05-08 16:00:00 20.6 4 Este 8 Sur -- -- -- 77
2020-05-08 15:00:00 21.1 3 Sur 7 Sudeste -- -- -- 75
2020-05-08 14:00:00 20.6 6 Sudeste 12 Este -- -- -- 76
2020-05-08 13:00:00 20.5 10 Este 16 Este -- -- -- 72
2020-05-08 12:00:00 22 8 Este 13 Este -- -- -- 62
2020-05-08 11:00:00 22.1 8 Este 11 Este -- -- -- 66
2020-05-08 10:00:00 21.4 5 Este 9 Sudeste -- -- -- 62
2020-05-08 09:00:00 20.3 7 Noroeste 13 Noroeste -- -- -- 62
2020-05-08 08:00:00 17.9 9 Noroeste 15 Norte -- -- -- 66
2020-05-08 07:00:00 17.4 9 Norte 15 Norte -- -- -- 69
2020-05-08 06:00:00 17.7 8 Noroeste 10 Noroeste -- -- -- 69
2020-05-08 05:00:00 18.1 3 Noroeste 7 Noroeste -- -- -- 71
2020-05-08 04:00:00 18.3 3 Norte 11 Norte -- -- -- 69
2020-05-08 03:00:00 18.2 3 Norte 12 Norte -- -- -- 69
2020-05-08 02:00:00 18.4 3 Oeste 14 Noroeste -- -- -- 73
2020-05-08 01:00:00 18.7 7 Noroeste 10 Noroeste -- -- -- 72
2020-05-08 00:00:00 19.5 4 Noroeste 8 Oeste -- -- -- 70
2020-05-07 23:00:00 19.8 5 Oeste 9 Sudoeste -- -- -- 74
2020-05-07 22:00:00 20.2 5 Sudoeste 7 Oeste -- -- -- 73
2020-05-07 21:00:00 20.2 4 Oeste 13 Sur -- -- -- 75
2020-05-07 20:00:00 21.4 5 Sur 7 Sur -- -- -- 70
2020-05-07 19:00:00 21.9 3 Este 10 Sudeste -- -- -- 67
2020-05-07 18:00:00 21.6 6 Sudeste 20 Este -- -- -- 70
2020-05-07 17:00:00 22.4 11 Nordeste 20 Nordeste -- -- -- 70
2020-05-07 16:00:00 21.8 15 Este 22 Nordeste -- -- -- 71
2020-05-07 15:00:00 21.5 13 Este 26 Este -- -- -- 73
2020-05-07 14:00:00 21.1 12 Este 18 Este -- -- -- 77
2020-05-07 13:00:00 19.8 16 Este 25 Este -- -- -- 82
2020-05-07 12:00:00 19.6 22 Este 28 Este -- -- -- 84
2020-05-07 11:00:00 19.6 20 Este 26 Este -- -- -- 85
2020-05-07 10:00:00 19.4 14 Este 29 Sudeste -- -- -- 86
2020-05-07 09:00:00 18.9 16 Este 22 Este -- -- -- 86
2020-05-07 08:00:00 18.7 9 Nordeste 27 Este -- -- -- 89
2020-05-07 07:00:00 18.8 21 Este 31 Este -- -- -- 87
2020-05-07 06:00:00 19.4 25 Este 33 Este -- -- -- 83
2020-05-07 05:00:00 19.1 18 Este 26 Este -- -- -- 84
2020-05-07 04:00:00 19.8 19 Este 29 Este -- -- -- 74
2020-05-07 03:00:00 20.8 23 Nordeste 35 Nordeste -- -- -- 64
2020-05-07 02:00:00 22.3 31 Nordeste 39 Nordeste -- -- -- 54
2020-05-07 01:00:00 21 9 Nordeste 17 Este -- -- -- 64
2020-05-07 00:00:00 20.2 2 Este 7 Nordeste -- -- -- 76
2020-05-06 23:00:00 20.2 3 Noroeste 9 Norte -- -- -- 78
2020-05-06 22:00:00 19.7 2 Norte 13 Este -- -- -- 87
2020-05-06 21:00:00 20.1 10 Este 17 Este -- -- -- 86
2020-05-06 20:00:00 22.2 4 Este 8 Este -- -- -- 73
2020-05-06 19:00:00 21.6 3 Sudeste 6 Sudeste -- -- -- 74
2020-05-06 18:00:00 22 4 Sur 6 Sur -- -- -- 72
2020-05-06 17:00:00 21.5 3 Este 9 Este -- -- -- 72
2020-05-06 16:00:00 21 5 Este 8 Este -- -- -- 77
2020-05-06 15:00:00 20.8 6 Sudoeste 9 Sudoeste -- -- -- 75
2020-05-06 14:00:00 21 9 Sudoeste 11 Sudoeste -- -- -- 74
2020-05-06 13:00:00 21.2 3 Sur 6 Sur -- -- -- 70
2020-05-06 12:00:00 20.5 3 Sudoeste 5 Sudoeste -- -- -- 75
2020-05-06 11:00:00 20.4 3 Este 5 Nordeste -- -- -- 75
2020-05-06 10:00:00 20.4 5 Este 8 Nordeste -- -- -- 78
2020-05-06 09:00:00 19.7 5 Nordeste 8 Nordeste -- -- -- 82
2020-05-06 08:00:00 17 5 Norte 10 Nordeste -- -- -- 90
2020-05-06 07:00:00 17.3 0 Calma 10 Oeste -- -- -- 86
2020-05-06 06:00:00 17 6 Oeste 9 Oeste -- -- -- 84
2020-05-06 05:00:00 17.4 3 Sudoeste 5 Oeste -- -- -- 84
2020-05-06 04:00:00 17.8 4 Norte 8 Nordeste -- -- -- 81
2020-05-06 03:00:00 18 10 Nordeste 17 Nordeste -- -- -- 86
2020-05-06 02:00:00 18.1 14 Nordeste 19 Nordeste -- -- -- 86
2020-05-06 01:00:00 18.8 5 Este 12 Noroeste -- -- -- 85
2020-05-06 00:00:00 19 6 Sudoeste 9 Sudoeste -- -- -- 82
2020-05-05 23:00:00 19.7 3 Sur 10 Nordeste -- -- -- 81
2020-05-05 22:00:00 20.3 7 Nordeste 12 Nordeste -- -- -- 78
2020-05-05 21:00:00 20.6 6 Nordeste 17 Nordeste -- -- -- 79
2020-05-05 20:00:00 21.5 12 Nordeste 14 Nordeste -- -- -- 76
2020-05-05 19:00:00 21.9 10 Nordeste 12 Este -- -- -- 75
2020-05-05 18:00:00 22 10 Nordeste 15 Este -- -- -- 73
2020-05-05 17:00:00 20.8 11 Este 16 Nordeste -- -- -- 79
2020-05-05 16:00:00 21.8 10 Este 12 Nordeste -- -- -- 77
2020-05-05 15:00:00 21.2 6 Este 10 Este -- -- -- 75
2020-05-05 14:00:00 21.2 8 Este 10 Este -- -- -- 72
2020-05-05 13:00:00 22 0 Calma 9 Sudoeste -- -- -- 65
2020-05-05 12:00:00 20.3 7 Sudoeste 9 Sudoeste -- -- -- 75
2020-05-05 11:00:00 21 3 Nordeste 14 Nordeste -- -- -- 70
2020-05-05 10:00:00 20.1 9 Nordeste 12 Nordeste -- -- -- 79
2020-05-05 09:00:00 18.7 8 Nordeste 10 Nordeste -- -- -- 80
2020-05-05 08:00:00 17.6 4 Sudoeste 6 Sudoeste -- -- -- 83
2020-05-05 07:00:00 17.4 2 Nordeste 5 Norte -- -- -- 85
2020-05-05 06:00:00 17.6 5 Norte 9 Nordeste -- -- -- 86
2020-05-05 05:00:00 17.7 6 Nordeste 8 Nordeste -- -- -- 87
2020-05-05 04:00:00 18.5 6 Sudoeste 8 Oeste -- -- -- 78
2020-05-05 03:00:00 18.8 5 Sudeste 10 Sudeste -- -- -- 80
2020-05-05 02:00:00 19 3 Norte 8 Noroeste -- -- -- 80
2020-05-05 01:00:00 18.8 5 Sudoeste 7 Sudoeste -- -- -- 86
2020-05-05 00:00:00 19.7 0 Calma 9 Nordeste -- -- -- 77
2020-05-04 23:00:00 19.7 5 Nordeste 12 Sudeste -- -- -- 83
2020-05-04 22:00:00 20.2 7 Nordeste 11 Nordeste -- -- -- 83
2020-05-04 21:00:00 20.2 6 Oeste 16 Sudoeste -- -- -- 84
2020-05-04 20:00:00 21.5 10 Sudoeste 14 Sudoeste -- -- -- 73
2020-05-04 19:00:00 22.5 11 Sudoeste 14 Sudoeste -- -- -- 65
2020-05-04 18:00:00 24.7 9 Sudoeste 14 Sudoeste -- -- -- 63
2020-05-04 17:00:00 22.1 12 Sudoeste 21 Sudoeste -- -- -- 70
2020-05-04 16:00:00 21.4 18 Sudoeste 21 Sudoeste -- -- -- 72
2020-05-04 15:00:00 21.6 18 Sudoeste 24 Sudoeste -- -- -- 68
2020-05-04 14:00:00 20.9 23 Sudoeste 26 Sudoeste -- -- -- 73
2020-05-04 13:00:00 20.7 18 Sudoeste 22 Sudoeste -- -- -- 73
2020-05-04 12:00:00 21.5 13 Sudoeste 17 Sudoeste -- -- -- 69
2020-05-04 11:00:00 22.9 5 Sudoeste 9 Oeste -- -- -- 64
2020-05-04 10:00:00 25.8 2 Noroeste 11 Norte -- -- -- 49
2020-05-04 09:00:00 22.6 7 Norte 18 Norte -- -- -- 51
2020-05-04 08:00:00 20.6 14 Norte 20 Noroeste -- -- -- 53
2020-05-04 07:00:00 19.9 14 Noroeste 19 Norte -- -- -- 57
2020-05-04 06:00:00 19.7 9 Norte 14 Noroeste -- -- -- 60
2020-05-04 05:00:00 20.7 6 Norte 15 Norte -- -- -- 56
2020-05-04 04:00:00 19.6 13 Norte 19 Norte -- -- -- 64
2020-05-04 03:00:00 19 9 Norte 14 Noroeste -- -- -- 75
2020-05-04 02:00:00 19.5 3 Noroeste 7 Oeste -- -- -- 74
2020-05-04 01:00:00 19.8 4 Sudoeste 5 Oeste -- -- -- 75
2020-05-04 00:00:00 19.8 0 Calma 8 Noroeste -- -- -- 73
2020-05-03 23:00:00 20.2 5 Noroeste 8 Noroeste -- -- -- 69
2020-05-03 22:00:00 20 3 Este 8 Sudeste -- -- -- 73
2020-05-03 21:00:00 20.6 2 Sudeste 6 Sudeste -- -- -- 68
2020-05-03 20:00:00 22.6 0 Calma 5 Sur -- -- -- 63
2020-05-03 19:00:00 22.7 2 Sudoeste 6 Sur -- -- -- 64
2020-05-03 18:00:00 23.7 2 Este 6 Sur -- -- -- 55
2020-05-03 17:00:00 22.2 4 Sur 8 Nordeste -- -- -- 63
2020-05-03 16:00:00 22.1 4 Sudeste 6 Sudeste -- -- -- 65
2020-05-03 15:00:00 23.1 2 Sudeste 9 Sudoeste -- -- -- 62
2020-05-03 14:00:00 23.3 3 Sudoeste 8 Sudoeste -- -- -- 61
2020-05-03 13:00:00 22.4 3 Sur 9 Sur -- -- -- 63
2020-05-03 12:00:00 22.2 4 Sudoeste 8 Sudoeste -- -- -- 68
2020-05-03 11:00:00 21.5 6 Sudoeste 9 Sudoeste -- -- -- 70
2020-05-03 10:00:00 20.8 6 Sudoeste 12 Sudoeste -- -- -- 74
2020-05-03 09:00:00 21.1 7 Noroeste 18 Norte -- -- -- 65
2020-05-03 08:00:00 18.4 13 Norte 18 Noroeste -- -- -- 76
2020-05-03 07:00:00 17.4 0 Calma 8 Noroeste -- -- -- 81
2020-05-03 06:00:00 17.8 6 Norte 12 Norte -- -- -- 79
2020-05-03 05:00:00 18.2 7 Noroeste 10 Norte -- -- -- 79
2020-05-03 04:00:00 18.7 4 Norte 13 Norte -- -- -- 78
2020-05-03 03:00:00 18.6 8 Norte 11 Norte -- -- -- 80
2020-05-03 02:00:00 19.1 4 Noroeste 8 Norte -- -- -- 79
2020-05-03 01:00:00 19.4 5 Norte 8 Nordeste -- -- -- 81
2020-05-03 00:00:00 20 4 Nordeste 7 Nordeste -- -- -- 74
2020-05-02 23:00:00 20 3 Oeste 6 Oeste -- -- -- 78
2020-05-02 22:00:00 20.4 0 Calma 13 Sudoeste -- -- -- 77
2020-05-02 21:00:00 20.8 9 Sudoeste 17 Sudoeste -- -- -- 81
2020-05-02 20:00:00 22.8 6 Sudoeste 13 Sudoeste -- -- -- 73
2020-05-02 19:00:00 21.6 11 Sudoeste 13 Sudoeste -- -- -- 77
2020-05-02 18:00:00 22.2 6 Sudoeste 7 Sudoeste -- -- -- 74
2020-05-02 17:00:00 22.2 4 Sur 5 Sudeste -- -- -- 69
2020-05-02 16:00:00 22.3 3 Sudeste 6 Sudeste -- -- -- 73
2020-05-02 15:00:00 21.7 3 Este 8 Este -- -- -- 72
2020-05-02 14:00:00 22.4 4 Este 6 Nordeste -- -- -- 66
2020-05-02 13:00:00 20.5 0 Calma 8 Este -- -- -- 75
2020-05-02 12:00:00 20.5 8 Nordeste 10 Nordeste -- -- -- 79
2020-05-02 11:00:00 21 6 Nordeste 9 Nordeste -- -- -- 73
2020-05-02 10:00:00 20.8 2 Nordeste 8 Sudeste -- -- -- 74
2020-05-02 09:00:00 22.6 4 Noroeste 8 Norte -- -- -- 59
2020-05-02 08:00:00 18.8 3 Norte 13 Noroeste -- -- -- 76
2020-05-02 07:00:00 19.7 6 Oeste 14 Noroeste -- -- -- 69
2020-05-02 06:00:00 19.1 5 Oeste 12 Sudoeste -- -- -- 77
2020-05-02 05:00:00 19 6 Oeste 12 Noroeste -- -- -- 77
2020-05-02 04:00:00 20.4 6 Norte 12 Norte -- -- -- 72
2020-05-02 03:00:00 18 2 Norte 9 Oeste -- -- -- 89
2020-05-02 02:00:00 18 5 Oeste 10 Sudoeste -- -- -- 90
2020-05-02 01:00:00 18.5 5 Oeste 8 Sudoeste -- -- -- 89
2020-05-02 00:00:00 19.3 4 Sudeste 9 Sur -- -- -- 85